Time;durP1;ratioP1;P1;durP2;ratioP2;P2;SDS_P1;SDS_P2;PMS_P1;PMS_P2;Temp;Humidity;BMP_temperature;BMP_pressure;BME280_temperature;BME280_humidity;BME280_pressure;Samples;Min_cycle;Max_cycle;Signal;HPM_P1;HPM_P2
2022/03/04 00:00:27;;;;;;;12.38;6.15;;;5.60;99.90;;;;;;5035283;28;20516;-64
2022/03/04 00:02:55;;;;;;;13.50;6.38;;;5.60;99.90;;;;;;5030404;28;20045;-64
2022/03/04 00:05:24;;;;;;;8.35;3.75;;;5.60;99.90;;;;;;5043728;28;20505;-63
2022/03/04 00:07:52;;;;;;;11.43;5.05;;;5.60;99.90;;;;;;5019735;28;20458;-64
2022/03/04 00:10:20;;;;;;;9.45;4.80;;;5.60;99.90;;;;;;5034323;28;20493;-65
2022/03/04 00:12:48;;;;;;;13.20;5.57;;;5.60;99.90;;;;;;5039263;28;20056;-64
2022/03/04 00:15:16;;;;;;;10.65;5.18;;;5.60;99.90;;;;;;5026671;28;20046;-64
2022/03/04 00:17:44;;;;;;;10.70;4.72;;;5.60;99.90;;;;;;5028172;28;20049;-64
2022/03/04 00:20:12;;;;;;;9.40;5.18;;;5.60;99.90;;;;;;5030122;28;20053;-64
2022/03/04 00:22:40;;;;;;;15.30;4.95;;;5.50;99.90;;;;;;5028932;28;20079;-64
2022/03/04 00:25:08;;;;;;;6.97;1.65;;;5.50;99.90;;;;;;5028922;28;20045;-64
2022/03/04 00:27:36;;;;;;;5.20;1.23;;;5.50;99.90;;;;;;5021960;28;20057;-65
2022/03/04 00:30:05;;;;;;;4.80;0.70;;;5.40;99.90;;;;;;5030178;28;20482;-64
2022/03/04 00:32:34;;;;;;;3.08;0.80;;;5.30;99.90;;;;;;5028553;28;20042;-64
2022/03/04 00:35:04;;;;;;;4.05;0.90;;;5.20;99.90;;;;;;5049223;28;20040;-65
2022/03/04 00:37:32;;;;;;;;;;;5.20;99.90;;;;;;5012534;28;20046;-65
2022/03/04 00:39:59;;;;;;;1.20;0.45;;;5.20;99.90;;;;;;5049478;28;19920;-65
2022/03/04 00:42:30;;;;;;;0.93;0.40;;;5.10;99.90;;;;;;5049278;28;20683;-64
2022/03/04 00:44:58;;;;;;;3.90;0.38;;;5.10;99.90;;;;;;5020166;28;20048;-64
2022/03/04 00:47:25;;;;;;;2.78;0.63;;;5.00;99.90;;;;;;5023767;28;20051;-65
2022/03/04 00:49:53;;;;;;;2.75;0.90;;;5.00;99.90;;;;;;5021133;28;20042;-64
2022/03/04 00:52:21;;;;;;;3.38;0.63;;;4.90;99.90;;;;;;5028408;28;20050;-65
2022/03/04 00:54:49;;;;;;;3.13;0.68;;;5.00;99.90;;;;;;5046461;28;20049;-64
2022/03/04 00:57:20;;;;;;;2.45;0.60;;;4.90;99.90;;;;;;5026927;28;20057;-64
2022/03/04 00:59:50;;;;;;;2.85;0.90;;;4.90;99.90;;;;;;5030748;28;20042;-65
2022/03/04 01:02:18;;;;;;;4.03;0.85;;;4.90;99.90;;;;;;5023310;28;20053;-66
2022/03/04 01:04:46;;;;;;;1.95;0.63;;;4.90;99.90;;;;;;5042084;28;20037;-65
2022/03/04 01:07:14;;;;;;;0.90;0.43;;;4.90;99.90;;;;;;5047057;28;20061;-65
2022/03/04 01:09:41;;;;;;;1.92;1.05;;;4.90;99.90;;;;;;5029209;28;20037;-65
2022/03/04 01:12:09;;;;;;;0.85;0.77;;;4.90;99.90;;;;;;5021748;28;20050;-65
2022/03/04 01:14:37;;;;;;;4.38;0.90;;;4.90;99.90;;;;;;5031774;28;20046;-64
2022/03/04 01:17:05;;;;;;;1.63;0.90;;;4.90;99.90;;;;;;5009067;28;20406;-65
2022/03/04 01:19:33;;;;;;;4.32;0.88;;;4.90;99.90;;;;;;5044787;28;20131;-65
2022/03/04 01:22:00;;;;;;;1.20;0.65;;;4.80;99.90;;;;;;5043430;28;20049;-66
2022/03/04 01:24:28;;;;;;;4.22;0.80;;;4.80;99.90;;;;;;5046144;28;20052;-67
2022/03/04 01:26:55;;;;;;;1.02;0.80;;;4.90;99.90;;;;;;5048431;28;20044;-65
2022/03/04 01:29:23;;;;;;;3.08;1.13;;;4.80;99.90;;;;;;5042348;28;20049;-64
2022/03/04 01:31:51;;;;;;;2.65;1.30;;;4.90;99.90;;;;;;5011560;28;20053;-64
2022/03/04 01:34:19;;;;;;;3.72;1.30;;;4.90;99.90;;;;;;5041387;28;20056;-63
2022/03/04 01:36:46;;;;;;;3.95;1.83;;;4.80;99.90;;;;;;5031483;28;20038;-66
2022/03/04 01:39:14;;;;;;;2.55;1.35;;;4.80;99.90;;;;;;5040101;28;20061;-66
2022/03/04 01:41:42;;;;;;;7.65;1.98;;;4.80;99.90;;;;;;5008607;28;20046;-66
2022/03/04 01:44:10;;;;;;;7.82;1.70;;;4.80;99.90;;;;;;5031308;28;20052;-67
2022/03/04 01:46:37;;;;;;;2.60;1.40;;;4.80;99.90;;;;;;5023314;28;20050;-65
2022/03/04 01:49:05;;;;;;;8.63;2.80;;;4.90;99.90;;;;;;5025361;28;20052;-66
2022/03/04 01:51:33;;;;;;;2.63;1.73;;;4.80;99.90;;;;;;5027914;28;20064;-64
2022/03/04 01:54:01;;;;;;;5.20;1.85;;;4.80;99.90;;;;;;5038157;28;20060;-65
2022/03/04 01:56:29;;;;;;;7.35;2.17;;;4.90;99.90;;;;;;5019993;28;20498;-65
2022/03/04 01:58:57;;;;;;;7.03;2.22;;;4.80;99.90;;;;;;5037844;28;20059;-65
2022/03/04 02:01:25;;;;;;;5.50;2.50;;;4.80;99.90;;;;;;5049914;28;20037;-64
2022/03/04 02:03:53;;;;;;;3.08;1.80;;;4.90;99.90;;;;;;5050812;28;20067;-66
2022/03/04 02:06:21;;;;;;;4.20;2.22;;;4.80;99.90;;;;;;5028666;28;20048;-67
2022/03/04 02:08:49;;;;;;;3.60;1.48;;;4.80;99.90;;;;;;5047783;28;20056;-66
2022/03/04 02:11:17;;;;;;;7.75;1.90;;;4.80;99.90;;;;;;5028273;28;20056;-66
2022/03/04 02:13:45;;;;;;;5.05;1.88;;;4.80;99.90;;;;;;5037120;28;20324;-64
2022/03/04 02:16:23;;;;;;;7.78;1.90;;;4.80;99.90;;;;;;5034428;28;20041;-63
2022/03/04 02:18:51;;;;;;;3.15;1.80;;;4.80;99.90;;;;;;5033282;28;20045;-64
2022/03/04 02:21:22;;;;;;;6.78;2.03;;;4.70;99.90;;;;;;5028853;28;20064;-65
2022/03/04 02:23:50;;;;;;;6.97;1.98;;;4.70;99.90;;;;;;5011601;28;20053;-64
2022/03/04 02:26:18;;;;;;;7.32;1.73;;;4.80;99.90;;;;;;5068045;28;20047;-64
2022/03/04 02:28:46;;;;;;;3.13;1.77;;;4.70;99.90;;;;;;5052262;28;20041;-64
2022/03/04 02:31:18;;;;;;;2.72;1.40;;;4.70;99.90;;;;;;5014956;28;20389;-64
2022/03/04 02:33:49;;;;;;;6.88;1.42;;;4.80;99.90;;;;;;5038425;28;20044;-65
2022/03/04 02:36:17;;;;;;;2.75;1.95;;;4.70;99.90;;;;;;5032322;28;20042;-65
2022/03/04 02:38:45;;;;;;;2.80;1.88;;;4.70;99.90;;;;;;5041464;28;20057;-64
2022/03/04 02:41:13;;;;;;;3.97;1.50;;;4.80;99.90;;;;;;5061006;28;20048;-64
2022/03/04 02:43:41;;;;;;;3.08;1.70;;;4.70;99.90;;;;;;5069189;28;20036;-66
2022/03/04 02:46:09;;;;;;;5.90;2.00;;;4.70;99.90;;;;;;5040602;28;20053;-65
2022/03/04 02:48:39;;;;;;;2.08;1.33;;;4.70;99.90;;;;;;5036512;28;20055;-65
2022/03/04 02:51:07;;;;;;;5.32;1.67;;;4.70;99.90;;;;;;5039914;28;20046;-64
2022/03/04 02:53:38;;;;;;;3.63;1.92;;;4.70;99.90;;;;;;5053051;28;20540;-63
2022/03/04 02:56:06;;;;;;;4.00;2.15;;;4.70;99.90;;;;;;5026742;28;20041;-65
2022/03/04 02:58:33;;;;;;;4.57;2.15;;;4.70;99.90;;;;;;5036628;28;20057;-65
2022/03/04 03:01:02;;;;;;;2.92;1.83;;;4.70;99.90;;;;;;5067765;28;20408;-66
2022/03/04 03:03:30;;;;;;;4.35;2.15;;;4.70;99.90;;;;;;5066358;28;20059;-64
2022/03/04 03:05:58;;;;;;;5.13;2.35;;;4.70;99.90;;;;;;5056592;28;20045;-62
2022/03/04 03:08:26;;;;;;;3.95;2.00;;;4.70;99.90;;;;;;5053749;28;20049;-63
2022/03/04 03:10:58;;;;;;;5.78;2.53;;;4.70;99.90;;;;;;5046732;28;20037;-65
2022/03/04 03:13:26;;;;;;;4.07;2.15;;;4.70;99.90;;;;;;5043527;28;20049;-65
2022/03/04 03:15:54;;;;;;;3.88;1.95;;;4.70;99.90;;;;;;5034174;28;20044;-64
2022/03/04 03:18:22;;;;;;;8.45;2.63;;;4.70;99.90;;;;;;5043796;28;20056;-65
2022/03/04 03:20:49;;;;;;;4.85;2.30;;;4.70;99.90;;;;;;5035433;28;20486;-65
2022/03/04 03:23:17;;;;;;;3.72;2.20;;;4.70;99.90;;;;;;5036431;28;20580;-65
2022/03/04 03:25:45;;;;;;;3.75;1.83;;;4.70;99.90;;;;;;5027648;28;20484;-65
2022/03/04 03:28:12;;;;;;;4.22;2.13;;;4.70;99.90;;;;;;5034746;28;20041;-64
2022/03/04 03:30:40;;;;;;;4.18;2.33;;;4.70;99.90;;;;;;5049695;28;20048;-65
2022/03/04 03:33:07;;;;;;;2.92;2.20;;;4.60;99.90;;;;;;5038490;28;20064;-66
2022/03/04 03:35:35;;;;;;;4.45;1.90;;;4.60;99.90;;;;;;5017037;28;20038;-63
2022/03/04 03:38:03;;;;;;;4.45;2.10;;;4.60;99.90;;;;;;5034014;28;20066;-64
2022/03/04 03:40:31;;;;;;;6.05;2.20;;;4.60;99.90;;;;;;5034588;28;20057;-64
2022/03/04 03:42:58;;;;;;;4.78;2.50;;;4.60;99.90;;;;;;5041656;28;20041;-64
2022/03/04 03:45:26;;;;;;;4.97;2.17;;;4.70;99.90;;;;;;5037465;28;20037;-66
2022/03/04 03:47:54;;;;;;;6.25;2.13;;;4.60;99.90;;;;;;5033847;28;20052;-64
2022/03/04 03:50:21;;;;;;;5.38;2.58;;;4.70;99.90;;;;;;5050368;28;20045;-66
2022/03/04 03:52:49;;;;;;;4.03;2.10;;;4.60;99.90;;;;;;5051335;28;20127;-64
2022/03/04 03:55:18;;;;;;;6.80;2.20;;;4.70;99.90;;;;;;5053603;28;20060;-66
2022/03/04 03:57:45;;;;;;;5.10;2.58;;;4.70;99.90;;;;;;5043167;28;20060;-64
2022/03/04 04:00:13;;;;;;;5.00;2.85;;;4.60;99.90;;;;;;5047784;28;20052;-65
2022/03/04 04:02:41;;;;;;;4.85;2.40;;;4.60;99.90;;;;;;5053414;28;20497;-64
2022/03/04 04:05:11;;;;;;;6.60;2.35;;;4.70;99.90;;;;;;5052793;28;20060;-65
2022/03/04 04:07:39;;;;;;;10.25;3.15;;;4.60;99.90;;;;;;5033702;28;20052;-66
2022/03/04 04:10:08;;;;;;;4.68;3.03;;;4.70;99.90;;;;;;5039399;28;20056;-65
2022/03/04 04:12:36;;;;;;;4.70;2.93;;;4.70;99.90;;;;;;5051726;28;20053;-63
2022/03/04 04:15:04;;;;;;;4.80;2.80;;;4.70;99.90;;;;;;5052970;28;20309;-64
2022/03/04 04:17:32;;;;;;;9.52;3.83;;;4.70;99.90;;;;;;5047442;28;20045;-67
2022/03/04 04:20:00;;;;;;;9.30;3.45;;;4.70;99.90;;;;;;5034271;28;20049;-66
2022/03/04 04:22:27;;;;;;;11.55;3.30;;;4.60;99.90;;;;;;5028780;28;20052;-67
2022/03/04 04:24:55;;;;;;;5.25;2.92;;;4.70;99.90;;;;;;5028605;28;20044;-66
2022/03/04 04:27:22;;;;;;;7.28;3.75;;;4.60;99.90;;;;;;5033092;28;20204;-66
2022/03/04 04:29:50;;;;;;;7.35;2.90;;;4.60;99.90;;;;;;5033336;28;20046;-63
2022/03/04 04:32:18;;;;;;;4.28;2.53;;;4.70;99.90;;;;;;5033864;28;20049;-62
2022/03/04 04:34:45;;;;;;;7.10;2.80;;;4.70;99.90;;;;;;5015346;28;20045;-65
2022/03/04 04:37:13;;;;;;;5.45;2.05;;;4.70;99.90;;;;;;5051186;28;20511;-67
2022/03/04 04:39:41;;;;;;;6.13;2.60;;;4.60;99.90;;;;;;5052696;28;20053;-64
2022/03/04 04:42:08;;;;;;;5.95;2.75;;;4.60;99.90;;;;;;5046471;28;20046;-67
2022/03/04 04:44:36;;;;;;;5.18;2.65;;;4.60;99.90;;;;;;5015314;28;20404;-67
2022/03/04 04:47:06;;;;;;;8.35;2.72;;;4.60;99.90;;;;;;5014989;28;20524;-67
2022/03/04 04:49:36;;;;;;;4.78;2.95;;;4.60;99.90;;;;;;5042872;28;20514;-66
2022/03/04 04:52:06;;;;;;;6.88;3.88;;;4.70;99.90;;;;;;5044437;28;20038;-64
2022/03/04 04:54:35;;;;;;;6.65;3.60;;;4.60;99.90;;;;;;5034075;28;20056;-64
2022/03/04 04:57:03;;;;;;;9.02;3.72;;;4.60;99.90;;;;;;5030430;28;20052;-63
2022/03/04 04:59:31;;;;;;;9.45;3.70;;;4.60;99.90;;;;;;5046802;28;20056;-63
2022/03/04 05:01:59;;;;;;;5.85;3.97;;;4.60;99.90;;;;;;5052317;28;20052;-65
2022/03/04 05:04:26;;;;;;;6.95;3.33;;;4.60;99.90;;;;;;5051882;28;20053;-66
2022/03/04 05:06:55;;;;;;;6.95;3.20;;;4.60;99.90;;;;;;5025877;28;20060;-67
2022/03/04 05:09:23;;;;;;;5.50;3.33;;;4.60;99.90;;;;;;5050679;28;20040;-66
2022/03/04 05:11:50;;;;;;;5.60;3.05;;;4.60;99.90;;;;;;5052226;28;20534;-62
2022/03/04 05:14:18;;;;;;;5.20;2.55;;;4.50;99.90;;;;;;5050217;28;20036;-67
2022/03/04 05:16:46;;;;;;;4.50;2.00;;;4.50;99.90;;;;;;5038396;28;20052;-67
2022/03/04 05:19:15;;;;;;;3.05;1.67;;;4.50;99.90;;;;;;5025570;28;20052;-68
2022/03/04 05:21:43;;;;;;;2.40;1.60;;;4.50;99.90;;;;;;5033921;28;20049;-68
2022/03/04 05:24:11;;;;;;;2.70;1.45;;;4.50;99.90;;;;;;5035379;28;20053;-68
2022/03/04 05:26:41;;;;;;;4.47;2.03;;;4.50;99.90;;;;;;5033459;28;20049;-65
2022/03/04 05:29:11;;;;;;;5.50;2.27;;;4.40;99.90;;;;;;5014610;28;20056;-65
2022/03/04 05:31:41;;;;;;;3.13;2.05;;;4.50;99.90;;;;;;5031958;28;20781;-66
2022/03/04 05:34:10;;;;;;;4.88;2.55;;;4.40;99.90;;;;;;5042058;28;20132;-65
2022/03/04 05:36:38;;;;;;;5.57;2.22;;;4.40;99.90;;;;;;5049884;28;20048;-65
2022/03/04 05:39:06;;;;;;;3.88;2.28;;;4.40;99.90;;;;;;5033941;28;20045;-66
2022/03/04 05:41:34;;;;;;;4.97;2.22;;;4.40;99.90;;;;;;5050809;28;20040;-66
2022/03/04 05:44:03;;;;;;;4.38;2.03;;;4.40;99.90;;;;;;5051639;28;20056;-64
2022/03/04 05:46:32;;;;;;;3.80;1.90;;;4.40;99.90;;;;;;5050609;28;20389;-64
2022/03/04 05:49:00;;;;;;;3.85;1.58;;;4.40;99.90;;;;;;5025042;28;20052;-67
2022/03/04 05:51:29;;;;;;;4.05;1.88;;;4.40;99.90;;;;;;5011030;28;20046;-66
2022/03/04 05:53:56;;;;;;;4.20;1.92;;;4.40;99.90;;;;;;5028127;28;20282;-64
2022/03/04 05:56:25;;;;;;;3.15;1.83;;;4.30;99.90;;;;;;5022237;28;20044;-64
2022/03/04 05:58:52;;;;;;;5.22;1.70;;;4.30;99.90;;;;;;5044400;28;20044;-65
2022/03/04 06:01:20;;;;;;;2.83;1.58;;;4.30;99.90;;;;;;5047658;28;20059;-66
2022/03/04 06:03:48;;;;;;;3.38;1.83;;;4.30;99.90;;;;;;5024231;28;20363;-65
2022/03/04 06:06:15;;;;;;;4.03;2.00;;;4.30;99.90;;;;;;5032321;28;20064;-65
2022/03/04 06:08:43;;;;;;;2.70;1.88;;;4.30;99.90;;;;;;5038521;28;20112;-65
2022/03/04 06:11:12;;;;;;;3.85;1.90;;;4.30;99.90;;;;;;5042563;28;20492;-65
2022/03/04 06:13:39;;;;;;;1.88;1.67;;;4.30;99.90;;;;;;5049430;28;20052;-64
2022/03/04 06:16:07;;;;;;;3.05;1.70;;;4.30;99.90;;;;;;5054490;28;20057;-64
2022/03/04 06:18:36;;;;;;;5.07;1.85;;;4.30;99.90;;;;;;5055004;28;20046;-66
2022/03/04 06:21:04;;;;;;;3.87;1.87;;;4.30;99.90;;;;;;5057583;28;20048;-65
2022/03/04 06:23:32;;;;;;;5.32;1.65;;;4.30;99.90;;;;;;5070284;28;20535;-65
2022/03/04 06:26:00;;;;;;;1.85;1.30;;;4.30;99.90;;;;;;5016115;28;20034;-66
2022/03/04 06:28:28;;;;;;;2.72;1.48;;;4.30;99.90;;;;;;5056117;28;20059;-64
2022/03/04 06:30:56;;;;;;;3.55;1.50;;;4.30;99.90;;;;;;5072035;28;20052;-67
2022/03/04 06:33:30;;;;;;;4.00;1.70;;;4.20;99.90;;;;;;5069484;28;20044;-67
2022/03/04 06:36:07;;;;;;;3.22;1.63;;;4.20;99.90;;;;;;5041851;28;20060;-65
2022/03/04 06:38:36;;;;;;;2.67;1.60;;;4.30;99.90;;;;;;5047937;28;20469;-67
2022/03/04 06:41:05;;;;;;;;;;;4.20;99.90;;;;;;5032320;28;20050;-67
2022/03/04 06:43:33;;;;;;;3.03;1.70;;;4.20;99.90;;;;;;5060138;28;20518;-63
2022/03/04 06:46:04;;;;;;;2.20;1.60;;;4.20;99.90;;;;;;5051195;28;20041;-66
2022/03/04 06:48:32;;;;;;;2.28;1.42;;;4.20;99.90;;;;;;5053255;28;20071;-63
2022/03/04 06:51:04;;;;;;;2.72;1.58;;;4.20;99.90;;;;;;5014274;28;20046;-65
2022/03/04 06:53:32;;;;;;;6.07;1.70;;;4.30;99.90;;;;;;5056994;28;20041;-65
2022/03/04 06:56:00;;;;;;;5.22;1.73;;;4.20;99.90;;;;;;5055016;28;20041;-64
2022/03/04 06:58:27;;;;;;;3.10;1.67;;;4.20;99.90;;;;;;5047698;28;20538;-64
2022/03/04 07:00:56;;;;;;;3.50;1.60;;;4.20;99.90;;;;;;5049461;28;20060;-64
2022/03/04 07:03:25;;;;;;;2.28;1.52;;;4.20;99.90;;;;;;5057427;28;20499;-68
2022/03/04 07:05:53;;;;;;;2.95;1.75;;;4.20;99.90;;;;;;5006544;28;20045;-67
2022/03/04 07:08:21;;;;;;;3.33;1.80;;;4.30;99.90;;;;;;5031857;28;20045;-66
2022/03/04 07:10:49;;;;;;;5.25;1.80;;;4.20;99.90;;;;;;5024931;28;20052;-66
2022/03/04 07:13:19;;;;;;;3.38;1.75;;;4.30;99.90;;;;;;5060724;28;20051;-67
2022/03/04 07:15:47;;;;;;;4.82;1.75;;;4.30;99.90;;;;;;5066242;28;20539;-69
2022/03/04 07:18:15;;;;;;;2.90;1.52;;;4.30;99.90;;;;;;5043188;28;20051;-64
2022/03/04 07:20:43;;;;;;;4.45;1.50;;;4.30;99.90;;;;;;5043035;28;20049;-65
2022/03/04 07:23:11;;;;;;;3.50;1.50;;;4.30;99.90;;;;;;5058442;28;20048;-67
2022/03/04 07:25:38;;;;;;;2.90;2.03;;;4.30;99.90;;;;;;5046988;28;20390;-68
2022/03/04 07:28:06;;;;;;;2.97;1.20;;;4.40;99.90;;;;;;5042750;28;20045;-67
2022/03/04 07:30:34;;;;;;;1.90;1.40;;;4.40;99.90;;;;;;5034139;28;20041;-68
2022/03/04 07:33:03;;;;;;;2.95;1.65;;;4.40;99.90;;;;;;5048295;28;20053;-63
2022/03/04 07:35:31;;;;;;;3.65;1.55;;;4.40;99.90;;;;;;5026339;28;20053;-68
2022/03/04 07:37:59;;;;;;;2.70;1.60;;;4.40;99.90;;;;;;5031276;28;20040;-66
2022/03/04 07:40:27;;;;;;;4.05;1.33;;;4.40;99.90;;;;;;5055839;28;20045;-66
2022/03/04 07:42:55;;;;;;;4.05;1.55;;;4.50;99.90;;;;;;5025594;28;20056;-64
2022/03/04 07:45:24;;;;;;;2.63;1.20;;;4.50;99.90;;;;;;5067273;28;20200;-66
2022/03/04 07:47:53;;;;;;;1.48;1.20;;;4.50;99.90;;;;;;5026098;28;20040;-66
2022/03/04 07:50:21;;;;;;;3.28;1.40;;;4.50;99.90;;;;;;5038376;28;20049;-68
2022/03/04 07:52:49;;;;;;;2.35;1.38;;;4.50;99.90;;;;;;5049467;28;20128;-64
2022/03/04 07:55:17;;;;;;;2.35;1.23;;;4.60;99.90;;;;;;5063078;28;20392;-67
2022/03/04 07:57:45;;;;;;;2.03;1.15;;;4.60;99.90;;;;;;5059984;28;20043;-67
2022/03/04 08:00:15;;;;;;;1.92;1.10;;;4.60;99.90;;;;;;5041149;28;20041;-67
2022/03/04 08:02:43;;;;;;;2.47;1.25;;;4.70;99.90;;;;;;5038393;28;20404;-67
2022/03/04 08:05:12;;;;;;;2.15;1.10;;;4.70;99.90;;;;;;5057462;28;20049;-65
2022/03/04 08:07:40;;;;;;;1.88;1.15;;;4.70;99.90;;;;;;5052723;28;20415;-63
2022/03/04 08:10:10;;;;;;;1.58;1.20;;;4.80;99.90;;;;;;5041201;28;20061;-65
2022/03/04 08:12:38;;;;;;;2.40;1.13;;;4.80;99.90;;;;;;5039354;28;20526;-64
2022/03/04 08:15:09;;;;;;;2.30;1.33;;;4.80;99.90;;;;;;5040709;28;20040;-63
2022/03/04 08:17:41;;;;;;;5.20;1.48;;;4.80;99.90;;;;;;5051314;28;20048;-64
2022/03/04 08:20:09;;;;;;;5.25;1.02;;;4.80;99.90;;;;;;5066752;28;20052;-63
2022/03/04 08:22:38;;;;;;;2.53;1.20;;;4.90;99.90;;;;;;5033117;28;20045;-64
2022/03/04 08:25:06;;;;;;;2.97;1.70;;;4.90;99.90;;;;;;5069820;28;20048;-67
2022/03/04 08:27:41;;;;;;;5.60;2.25;;;4.90;99.90;;;;;;5069412;28;20040;-67
2022/03/04 08:30:12;;;;;;;6.82;2.70;;;4.90;99.90;;;;;;5037695;28;20086;-67
2022/03/04 08:32:40;;;;;;;7.35;2.75;;;5.00;99.90;;;;;;5053162;28;20047;-66
2022/03/04 08:35:09;;;;;;;5.65;3.30;;;4.90;99.90;;;;;;5037699;28;20057;-64
2022/03/04 08:37:37;;;;;;;6.82;3.40;;;5.00;99.90;;;;;;5029863;28;20052;-67
2022/03/04 08:40:08;;;;;;;4.40;2.08;;;5.10;99.90;;;;;;5032925;28;20049;-65
2022/03/04 08:42:37;;;;;;;7.40;3.08;;;5.10;99.90;;;;;;5048763;28;20613;-63
2022/03/04 08:45:08;;;;;;;5.50;3.30;;;5.10;99.90;;;;;;5055034;28;20048;-66
2022/03/04 08:47:36;;;;;;;5.88;2.33;;;5.10;99.90;;;;;;5068770;28;20060;-63
2022/03/04 08:50:05;;;;;;;4.53;2.45;;;5.20;99.90;;;;;;5060148;28;20041;-63
2022/03/04 08:52:33;;;;;;;5.53;2.80;;;5.20;99.90;;;;;;5054424;28;20047;-65
2022/03/04 08:55:00;;;;;;;4.28;2.00;;;5.20;99.90;;;;;;5057350;28;20053;-63
2022/03/04 08:57:28;;;;;;;3.42;2.10;;;5.30;99.90;;;;;;5035859;28;20731;-62
2022/03/04 09:00:01;;;;;;;2.33;1.60;;;5.30;99.90;;;;;;5066931;28;20056;-63
2022/03/04 09:02:30;;;;;;;4.03;1.77;;;5.30;99.90;;;;;;5012141;28;20049;-66
2022/03/04 09:04:59;;;;;;;3.28;1.48;;;5.30;99.90;;;;;;5053693;28;20040;-64
2022/03/04 09:07:32;;;;;;;4.00;2.10;;;5.30;99.90;;;;;;5034299;28;20049;-67
2022/03/04 09:10:01;;;;;;;3.22;1.98;;;5.30;99.90;;;;;;5036863;28;20429;-64
2022/03/04 09:12:29;;;;;;;4.65;1.65;;;5.40;99.90;;;;;;5051543;28;20056;-66
2022/03/04 09:14:57;;;;;;;2.85;1.77;;;5.40;99.90;;;;;;5059842;28;20033;-67
2022/03/04 09:17:25;;;;;;;4.18;1.75;;;5.50;99.90;;;;;;5042138;28;20205;-66
2022/03/04 09:19:52;;;;;;;10.35;1.65;;;5.50;99.90;;;;;;5037077;28;20045;-66
2022/03/04 09:22:25;;;;;;;5.78;2.22;;;5.60;99.90;;;;;;5039783;28;20047;-66
2022/03/04 09:24:53;;;;;;;3.92;1.60;;;5.70;99.90;;;;;;5054802;28;20499;-64
2022/03/04 09:27:21;;;;;;;3.55;2.15;;;5.70;99.90;;;;;;5051106;28;20059;-66
2022/03/04 09:29:49;;;;;;;4.80;1.90;;;5.70;99.90;;;;;;5020593;28;20049;-63
2022/03/04 09:32:17;;;;;;;3.28;1.73;;;5.80;99.90;;;;;;5050483;28;20055;-65
2022/03/04 09:34:44;;;;;;;7.35;1.60;;;5.80;99.90;;;;;;5055647;28;20531;-66
2022/03/04 09:37:12;;;;;;;5.80;1.92;;;5.90;99.90;;;;;;5045597;28;20049;-66
2022/03/04 09:39:40;;;;;;;4.18;1.90;;;5.90;99.90;;;;;;5030194;28;20057;-62
2022/03/04 09:42:11;;;;;;;11.57;5.10;;;5.90;99.90;;;;;;5044832;28;20484;-63
2022/03/04 09:44:40;;;;;;;7.87;3.93;;;6.00;99.90;;;;;;5051563;28;20044;-62
2022/03/04 09:47:10;;;;;;;6.90;4.13;;;6.10;99.90;;;;;;5050079;28;20058;-62
2022/03/04 09:49:38;;;;;;;;;;;6.10;99.90;;;;;;5029469;28;20373;-66
2022/03/04 09:52:08;;;;;;;22.23;12.13;;;6.20;99.90;;;;;;5014623;28;19928;-67
2022/03/04 09:54:36;;;;;;;7.05;3.50;;;6.20;99.90;;;;;;5045365;28;20487;-67
2022/03/04 09:57:04;;;;;;;3.15;1.85;;;6.20;99.90;;;;;;5047552;28;20045;-64
2022/03/04 09:59:32;;;;;;;3.22;2.13;;;6.20;99.90;;;;;;5058035;28;20053;-64
2022/03/04 10:01:59;;;;;;;4.10;1.98;;;6.20;99.90;;;;;;5028640;28;20053;-66
2022/03/04 10:04:28;;;;;;;5.30;2.13;;;6.30;99.90;;;;;;5047258;28;20049;-63
2022/03/04 10:06:56;;;;;;;6.15;2.42;;;6.30;99.90;;;;;;5029289;28;20045;-67
2022/03/04 10:09:40;;;;;;;6.38;2.22;;;6.40;99.90;;;;;;5047817;28;20049;-66
2022/03/04 10:12:09;;;;;;;5.30;3.22;;;6.30;99.90;;;;;;5038143;28;20052;-66
2022/03/04 10:14:59;;;;;;;7.97;4.05;;;6.30;99.90;;;;;;5049861;28;20047;-67
2022/03/04 10:17:32;;;;;;;9.02;3.33;;;6.30;99.90;;;;;;5066374;28;20067;-66
2022/03/04 10:20:03;;;;;;;7.35;3.30;;;6.30;99.90;;;;;;5041670;28;20388;-67
2022/03/04 10:22:46;;;;;;;7.10;3.47;;;6.30;99.90;;;;;;5036610;28;20423;-67
2022/03/04 10:25:24;;;;;;;7.82;3.78;;;6.30;99.90;;;;;;5068123;28;20049;-67
2022/03/04 10:27:53;;;;;;;6.85;4.45;;;6.40;99.90;;;;;;5057107;28;20127;-67
2022/03/04 10:30:32;;;;;;;8.07;3.72;;;6.40;99.90;;;;;;5049293;28;20056;-67
2022/03/04 10:33:11;;;;;;;9.02;4.18;;;6.40;99.90;;;;;;5025881;28;20072;-67
2022/03/04 10:35:40;;;;;;;10.65;4.55;;;6.40;99.90;;;;;;5040376;28;20051;-64
2022/03/04 10:38:27;;;;;;;10.45;4.63;;;6.40;99.90;;;;;;5033039;28;20045;-66
2022/03/04 10:40:56;;;;;;;9.85;4.10;;;6.50;99.90;;;;;;5032071;28;20052;-64
2022/03/04 10:43:31;;;;;;;12.65;4.43;;;6.50;99.90;;;;;;5033062;28;20044;-66
2022/03/04 10:46:01;;;;;;;7.70;4.35;;;6.50;99.90;;;;;;5068035;28;20048;-66
2022/03/04 10:48:30;;;;;;;6.97;3.63;;;6.50;99.90;;;;;;5052386;28;20060;-63
2022/03/04 10:51:06;;;;;;;14.00;3.65;;;6.50;99.90;;;;;;5033908;28;20060;-63
2022/03/04 10:53:34;;;;;;;5.65;3.55;;;6.60;99.90;;;;;;5048427;28;20044;-63
2022/03/04 10:56:04;;;;;;;7.57;3.92;;;6.60;99.90;;;;;;5042740;28;20041;-66
2022/03/04 10:58:41;;;;;;;7.22;3.40;;;6.60;99.90;;;;;;5030425;28;20518;-63
2022/03/04 11:01:12;;;;;;;10.13;3.38;;;6.60;99.90;;;;;;5043942;28;20071;-63
2022/03/04 11:03:41;;;;;;;8.68;3.15;;;6.60;99.90;;;;;;5055168;28;20396;-63
2022/03/04 11:06:13;;;;;;;8.43;3.50;;;6.70;99.90;;;;;;5034627;28;20045;-63
2022/03/04 11:08:43;;;;;;;5.53;2.92;;;6.70;99.90;;;;;;5046771;28;20056;-66
2022/03/04 11:11:11;;;;;;;7.78;2.88;;;6.70;99.90;;;;;;5048319;28;20041;-64
2022/03/04 11:13:39;;;;;;;16.08;3.00;;;6.80;99.90;;;;;;5058225;28;20041;-63
2022/03/04 11:16:08;;;;;;;9.05;3.97;;;6.80;99.90;;;;;;5044659;28;20045;-63
2022/03/04 11:18:37;;;;;;;6.32;2.75;;;6.90;99.90;;;;;;5021496;28;20045;-63
2022/03/04 11:21:05;;;;;;;8.20;2.30;;;6.90;99.90;;;;;;5044962;28;20041;-63
2022/03/04 11:23:35;;;;;;;8.25;2.80;;;7.00;99.90;;;;;;5045754;28;20518;-63
2022/03/04 11:26:04;;;;;;;7.60;2.47;;;7.00;99.90;;;;;;5049170;28;20413;-63
2022/03/04 11:28:44;;;;;;;5.18;2.35;;;7.10;99.90;;;;;;5051773;28;20511;-61
2022/03/04 11:31:13;;;;;;;11.68;3.42;;;7.10;99.90;;;;;;5033165;28;20045;-64
2022/03/04 11:33:52;;;;;;;8.82;2.45;;;7.20;99.90;;;;;;5051551;28;20057;-61
2022/03/04 11:36:29;;;;;;;10.57;2.38;;;7.30;99.90;;;;;;5050017;28;20514;-63
2022/03/04 11:39:10;;;;;;;15.68;2.75;;;7.40;99.90;;;;;;5030851;28;20068;-63
2022/03/04 11:41:45;;;;;;;13.50;3.50;;;7.50;99.90;;;;;;5038526;28;20049;-63
2022/03/04 11:44:18;;;;;;;10.43;1.90;;;7.60;99.90;;;;;;5061807;28;20055;-64
2022/03/04 11:47:01;;;;;;;8.55;1.90;;;7.70;99.90;;;;;;5046490;28;20041;-61
2022/03/04 11:49:48;;;;;;;4.22;0.98;;;7.70;99.90;;;;;;5055944;28;20214;-62
2022/03/04 11:52:25;;;;;;;11.50;1.52;;;7.70;99.90;;;;;;5034982;28;20094;-62
2022/03/04 11:54:56;;;;;;;10.43;1.83;;;7.80;99.90;;;;;;5042319;28;20045;-61
2022/03/04 11:57:28;;;;;;;6.88;2.05;;;7.80;99.90;;;;;;5031472;28;20045;-65
2022/03/04 12:00:24;;;;;;;6.43;1.20;;;7.90;99.90;;;;;;5040512;28;20542;-66
2022/03/04 12:02:55;;;;;;;8.35;2.08;;;7.90;99.90;;;;;;5056766;28;20064;-66
2022/03/04 12:05:25;;;;;;;5.22;1.40;;;7.90;99.90;;;;;;5029509;28;20049;-65
2022/03/04 12:07:56;;;;;;;;;;;8.00;99.90;;;;;;5043933;28;20045;-65
2022/03/04 12:10:39;;;;;;;4.43;1.10;;;8.10;99.90;;;;;;5030470;28;19925;-64
2022/03/04 12:13:13;;;;;;;9.75;1.65;;;8.10;99.90;;;;;;5034583;28;20033;-66
2022/03/04 12:15:49;;;;;;;5.28;1.05;;;8.10;99.90;;;;;;5040973;28;20045;-64
2022/03/04 12:18:28;;;;;;;4.25;0.90;;;8.20;99.90;;;;;;5026535;28;20214;-66
2022/03/04 12:20:56;;;;;;;7.88;1.50;;;8.20;99.90;;;;;;5042530;28;20044;-65
2022/03/04 12:23:39;;;;;;;5.97;1.00;;;8.30;99.90;;;;;;5051735;28;20407;-66
2022/03/04 12:26:37;;;;;;;9.05;1.20;;;8.40;99.90;;;;;;5027624;28;20041;-65
2022/03/04 12:29:08;;;;;;;4.03;0.75;;;8.40;99.90;;;;;;5042560;28;20041;-66
2022/03/04 12:31:41;;;;;;;6.03;1.15;;;8.40;99.90;;;;;;5035058;28;20068;-64
2022/03/04 12:34:24;;;;;;;8.23;1.50;;;8.40;99.90;;;;;;5062002;28;20052;-66
2022/03/04 12:36:53;;;;;;;12.30;1.58;;;8.40;99.90;;;;;;5064899;28;20049;-62
2022/03/04 12:39:22;;;;;;;10.57;1.60;;;8.50;99.90;;;;;;5053650;28;20049;-62
2022/03/04 12:41:55;;;;;;;10.18;1.90;;;8.60;99.90;;;;;;5049446;28;20056;-63
2022/03/04 12:44:27;;;;;;;15.35;2.00;;;8.50;99.90;;;;;;5050958;28;20045;-62
2022/03/04 12:46:56;;;;;;;14.82;3.97;;;8.50;99.90;;;;;;5029401;28;20064;-62
2022/03/04 12:49:33;;;;;;;8.20;1.63;;;8.50;99.90;;;;;;5045056;28;20049;-62
2022/03/04 12:52:01;;;;;;;10.75;2.08;;;8.50;99.90;;;;;;5029244;28;20038;-66
2022/03/04 12:54:31;;;;;;;14.48;2.00;;;8.50;99.90;;;;;;5050968;28;20033;-63
2022/03/04 12:57:05;;;;;;;17.05;4.75;;;8.50;99.90;;;;;;5033881;28;20050;-63
2022/03/04 12:59:47;;;;;;;15.55;2.75;;;8.50;99.90;;;;;;5014034;28;20049;-64
2022/03/04 13:02:16;;;;;;;15.48;2.40;;;8.60;99.90;;;;;;5029063;28;20049;-65
2022/03/04 13:05:01;;;;;;;12.55;2.08;;;8.50;99.90;;;;;;5026286;28;20053;-65
2022/03/04 13:07:30;;;;;;;13.43;1.73;;;8.60;99.90;;;;;;5015471;28;20069;-64
2022/03/04 13:09:58;;;;;;;10.05;2.42;;;8.70;99.90;;;;;;5032040;28;20045;-64